Time;durP1;ratioP1;P1;durP2;ratioP2;P2;SDS_P1;SDS_P2;PMS_P1;PMS_P2;Temp;Humidity;BMP_temperature;BMP_pressure;BME280_temperature;BME280_humidity;BME280_pressure;Samples;Min_cycle;Max_cycle;Signal;HPM_P1;HPM_P2
2021/06/02 00:09:20;;;;;;;11.20;9.10;;;;;;;13.31;55.95;99880.41;531398;1098;115843;-66
2021/06/02 00:19:26;;;;;;;10.00;8.00;;;;;;;13.30;56.18;99875.23;532044;1098;116250;-66
2021/06/02 00:29:33;;;;;;;12.77;8.70;;;;;;;13.28;56.14;99882.41;532092;1098;116787;-67
2021/06/02 00:39:38;;;;;;;11.73;6.20;;;;;;;13.25;55.98;99888.74;532121;1098;116816;-67
2021/06/02 00:49:44;;;;;;;13.03;7.77;;;;;;;13.23;56.22;99897.73;524268;1093;116813;-66
2021/06/02 00:59:57;;;;;;;9.27;6.83;;;;;;;13.13;56.18;99898.38;513964;1098;116445;-67
2021/06/02 01:10:03;;;;;;;10.57;7.13;;;;;;;13.06;56.36;99902.38;517015;1093;117390;-65
2021/06/02 01:20:10;;;;;;;9.63;7.83;;;;;;;13.01;56.27;99905.33;532149;1098;116600;-66
2021/06/02 01:30:19;;;;;;;11.50;7.75;;;;;;;13.01;56.12;99915.05;531239;1098;116612;-66
2021/06/02 01:40:43;;;;;;;;;;;;;;;13.00;55.65;99919.46;532097;1098;118098;-66
2021/06/02 01:51:31;;;;;;;7.38;6.15;;;;;;;13.00;55.52;99919.46;531725;1098;102870;-67
2021/06/02 02:01:57;;;;;;;8.47;5.70;;;;;;;12.98;55.39;99921.36;532166;1098;116510;-66
2021/06/02 02:12:16;;;;;;;10.30;6.77;;;;;;;12.94;55.08;99921.68;531436;1098;116612;-66
2021/06/02 02:22:26;;;;;;;;;;;;;;;12.92;54.74;99921.77;528523;1092;116220;-65
2021/06/02 02:33:00;;;;;;;7.53;5.13;;;;;;;12.89;54.43;99929.90;530570;1098;102544;-67
2021/06/02 02:43:12;;;;;;;11.67;5.73;;;;;;;12.96;54.27;99935.59;532122;1098;117089;-66
2021/06/02 02:53:24;;;;;;;7.90;6.40;;;;;;;13.25;53.81;99952.03;518147;1098;117586;-67
2021/06/02 03:03:34;;;;;;;10.33;6.47;;;;;;;15.09;52.92;99952.85;518730;1098;117000;-66
2021/06/02 03:13:49;;;;;;;9.17;5.20;;;;;;;18.20;48.67;99964.30;523649;1093;116272;-67
2021/06/02 03:24:10;;;;;;;6.17;4.93;;;;;;;17.49;45.94;99971.38;516499;1098;116792;-66
2021/06/02 03:34:25;;;;;;;8.63;5.13;;;;;;;16.30;46.40;99963.66;516882;1098;116108;-64
2021/06/02 03:44:47;;;;;;;6.33;4.60;;;;;;;16.11;46.26;99977.58;520457;1098;116197;-66
2021/06/02 03:54:59;;;;;;;7.47;5.33;;;;;;;16.95;46.33;99990.06;532140;1097;116159;-67
2021/06/02 04:05:33;;;;;;;8.87;4.47;;;;;;;24.47;40.81;99992.97;531827;1098;116528;-66
2021/06/02 04:15:42;;;;;;;7.45;4.48;;;;;;;28.42;34.50;99995.24;527717;1098;116356;-66
2021/06/02 04:25:49;;;;;;;10.13;5.20;;;;;;;31.58;31.50;100002.75;532131;1098;116126;-65
2021/06/02 04:35:57;;;;;;;6.18;4.40;;;;;;;34.15;27.35;100012.82;531407;1098;116411;-65
2021/06/02 04:46:06;;;;;;;5.10;4.60;;;;;;;35.70;24.61;100022.49;529616;1092;117034;-65
2021/06/02 04:56:34;;;;;;;6.03;4.10;;;;;;;38.51;21.80;100034.84;531944;1098;115726;-66
2021/06/02 05:07:19;;;;;;;6.55;4.80;;;;;;;39.91;19.92;100042.67;531985;1098;116447;-65
2021/06/02 05:18:01;;;;;;;6.03;3.73;;;;;;;41.20;18.38;100047.37;532023;1098;116342;-65
2021/06/02 05:28:54;;;;;;;6.98;3.63;;;;;;;43.65;16.87;100049.42;531981;1098;116136;-66
2021/06/02 05:39:11;;;;;;;5.85;3.83;;;;;;;45.27;15.40;100048.98;530313;1098;116316;-66
2021/06/02 05:49:44;;;;;;;4.40;4.00;;;;;;;46.40;13.44;100063.27;532056;1098;116499;-66
2021/06/02 06:00:29;;;;;;;6.63;3.45;;;;;;;47.75;12.96;100058.42;531291;1098;116985;-66
2021/06/02 06:11:07;;;;;;;4.53;3.45;;;;;;;49.20;11.65;100064.25;525342;1098;116602;-66
2021/06/02 06:21:55;;;;;;;5.45;3.75;;;;;;;49.36;10.81;100067.14;530543;1098;116855;-70
2021/06/02 06:32:02;;;;;;;6.18;2.83;;;;;;;49.93;10.49;100065.59;532008;1098;116573;-72
2021/06/02 06:42:11;;;;;;;4.57;4.10;;;;;;;51.80;9.62;100079.81;531352;1098;116205;-71
2021/06/02 06:52:17;;;;;;;4.08;3.88;;;;;;;51.85;8.91;100082.30;532150;1097;116023;-72
2021/06/02 07:02:23;;;;;;;5.03;4.05;;;;;;;51.82;8.03;100085.84;532094;1098;116485;-59
2021/06/02 07:12:29;;;;;;;5.33;4.93;;;;;;;52.25;8.26;100094.28;531319;1098;116126;-66
2021/06/02 07:22:37;;;;;;;5.58;4.95;;;;;;;51.73;7.79;100095.65;532164;1098;116467;-59
2021/06/02 07:32:43;;;;;;;5.43;5.03;;;;;;;49.68;7.12;100105.55;531344;1098;121184;-59
2021/06/02 07:42:48;;;;;;;3.30;3.00;;;;;;;51.21;6.94;100099.28;532152;1097;115809;-60
2021/06/02 07:52:53;;;;;;;2.43;1.80;;;;;;;42.55;8.49;100101.52;523318;1098;116175;-62
2021/06/02 08:03:03;;;;;;;3.37;1.50;;;;;;;35.93;11.26;100107.97;514027;1093;117466;-61
2021/06/02 08:13:08;;;;;;;1.40;1.30;;;;;;;31.98;13.12;100118.18;517364;1098;116301;-58
2021/06/02 08:23:12;;;;;;;;;;;;;;;28.06;15.05;100136.75;530394;1093;117453;-58
2021/06/02 08:33:17;;;;;;;2.13;1.37;;;;;;;26.60;16.61;100136.19;531228;1098;104520;-60
2021/06/02 08:43:22;;;;;;;1.17;1.13;;;;;;;25.00;18.23;100132.70;532104;1097;116469;-62
2021/06/02 08:53:28;;;;;;;2.80;1.90;;;;;;;23.75;19.94;100156.59;526212;1098;116502;-57
2021/06/02 09:03:33;;;;;;;3.03;1.63;;;;;;;23.05;20.89;100155.28;517448;1098;10000957;-59
2021/06/02 09:13:38;;;;;;;2.43;1.50;;;;;;;22.92;21.41;100147.73;520958;1093;117336;-58
2021/06/02 09:23:45;;;;;;;4.10;1.77;;;;;;;23.06;21.77;100157.77;522943;1098;116600;-59
2021/06/02 09:33:51;;;;;;;5.63;2.20;;;;;;;22.79;22.93;100146.38;524622;1094;116914;-59
2021/06/02 09:43:57;;;;;;;3.93;1.30;;;;;;;22.63;23.05;100133.80;529293;1098;116758;-59
2021/06/02 09:54:03;;;;;;;2.67;1.73;;;;;;;22.32;23.21;100128.17;523961;1098;116437;-58
2021/06/02 10:04:13;;;;;;;3.90;2.53;;;;;;;22.39;23.57;100123.83;530258;1098;116563;-57
2021/06/02 10:14:18;;;;;;;3.43;1.50;;;;;;;22.30;23.74;100131.00;531871;1098;116824;-57
2021/06/02 10:24:24;;;;;;;3.85;2.40;;;;;;;21.98;24.62;100119.16;529549;1097;116115;-59
2021/06/02 10:34:29;;;;;;;1.50;1.40;;;;;;;21.97;24.20;100122.84;517196;1092;117251;-60
2021/06/02 10:44:38;;;;;;;2.23;1.40;;;;;;;21.99;24.02;100134.23;516366;1098;116526;-56
2021/06/02 10:54:43;;;;;;;3.20;1.68;;;;;;;22.04;23.64;100131.91;528198;1098;173791;-58
2021/06/02 11:05:15;;;;;;;2.13;2.00;;;;;;;22.06;24.04;100132.58;523731;1098;115589;-59
2021/06/02 11:15:23;;;;;;;5.40;1.80;;;;;;;22.21;23.52;100134.64;531305;1098;117390;-61
2021/06/02 11:25:29;;;;;;;2.13;1.95;;;;;;;22.28;23.42;100133.00;532152;1098;116786;-60
2021/06/02 11:35:55;;;;;;;2.73;1.77;;;;;;;22.09;23.36;100132.25;517688;1098;116363;-50
2021/06/02 11:46:00;;;;;;;1.40;1.30;;;;;;;21.83;23.94;100125.12;531881;1098;173835;-59
2021/06/02 11:56:06;;;;;;;3.20;1.57;;;;;;;22.37;23.63;100132.03;532062;1098;116271;-58
2021/06/02 12:06:11;;;;;;;3.40;1.43;;;;;;;22.58;23.86;100130.79;531279;1098;116670;-58
2021/06/02 12:16:25;;;;;;;1.67;1.50;;;;;;;22.98;24.12;100127.48;527069;1098;116339;-56
2021/06/02 12:26:33;;;;;;;7.50;1.47;;;;;;;22.55;24.41;100132.95;522858;1098;116740;-57
2021/06/02 12:36:43;;;;;;;2.63;1.75;;;;;;;22.48;24.41;100117.53;516055;1098;115851;-58
2021/06/02 12:46:59;;;;;;;2.47;1.80;;;;;;;22.23;25.42;100113.94;519438;1098;116283;-58
2021/06/02 12:57:05;;;;;;;2.97;2.50;;;;;;;21.73;25.43;100121.72;531242;1098;116386;-57
2021/06/02 13:07:11;;;;;;;1.87;1.77;;;;;;;21.76;25.41;100125.92;532072;1098;116630;-57
2021/06/02 13:17:16;;;;;;;2.10;1.90;;;;;;;22.34;25.66;100127.02;524626;1098;116446;-57
2021/06/02 13:27:22;;;;;;;3.10;1.80;;;;;;;22.11;25.97;100138.30;531209;1098;117022;-58
2021/06/02 13:37:28;;;;;;;1.90;1.80;;;;;;;21.73;25.53;100131.59;531219;1098;116416;-58
2021/06/02 13:47:34;;;;;;;2.13;2.03;;;;;;;21.96;25.64;100127.36;532080;1098;116115;-61
2021/06/02 13:57:42;;;;;;;3.07;1.83;;;;;;;22.07;25.17;100125.41;524062;1098;116718;-61
2021/06/02 14:07:54;;;;;;;3.03;1.43;;;;;;;22.54;25.00;100126.75;520794;1092;116750;-57
2021/06/02 14:17:59;;;;;;;5.35;1.93;;;;;;;22.04;25.62;100126.56;525230;1098;116699;-62
2021/06/02 14:28:05;;;;;;;2.70;1.60;;;;;;;21.52;26.63;100130.91;532053;1098;116983;-56
2021/06/02 14:38:10;;;;;;;2.67;2.27;;;;;;;20.66;27.53;100137.66;524991;1097;116556;-57
2021/06/02 14:48:15;;;;;;;4.63;2.00;;;;;;;20.35;28.30;100140.68;531215;1098;116810;-57
2021/06/02 14:58:20;;;;;;;2.23;1.50;;;;;;;20.36;27.92;100151.17;532057;1098;116130;-57
2021/06/02 15:08:26;;;;;;;1.33;1.23;;;;;;;20.45;27.32;100141.47;532106;1098;116927;-58
2021/06/02 15:18:32;;;;;;;1.87;1.40;;;;;;;21.10;27.23;100136.95;523792;1098;117329;-61
2021/06/02 15:28:40;;;;;;;3.17;1.10;;;;;;;21.28;26.68;100136.93;520621;1093;116528;-57
2021/06/02 15:38:46;;;;;;;2.90;1.70;;;;;;;21.37;26.50;100135.16;502055;1092;10001856;-67
2021/06/02 15:48:51;;;;;;;3.43;1.50;;;;;;;21.19;26.80;100138.70;520736;1098;116397;-64
2021/06/02 15:58:58;;;;;;;2.13;1.43;;;;;;;20.69;27.60;100140.88;517537;1098;116084;-68
2021/06/02 16:09:04;;;;;;;5.15;1.48;;;;;;;20.09;28.28;100144.04;522628;1098;116621;-59
2021/06/02 16:19:09;;;;;;;5.53;2.03;;;;;;;19.85;29.06;100145.33;532026;1098;117149;-61
2021/06/02 16:29:16;;;;;;;1.50;1.40;;;;;;;19.83;29.15;100147.30;528694;1093;117136;-53
2021/06/02 16:39:22;;;;;;;2.80;2.07;;;;;;;19.95;29.50;100148.02;530966;1097;116197;-61
2021/06/02 16:49:28;;;;;;;2.77;1.30;;;;;;;20.29;29.28;100147.45;531814;1098;116384;-62
2021/06/02 16:59:34;;;;;;;2.45;1.50;;;;;;;20.27;28.90;100147.58;529348;1098;117105;-60
2021/06/02 17:09:40;;;;;;;7.45;2.10;;;;;;;20.01;28.88;100156.27;518574;1098;116498;-61
2021/06/02 17:19:45;;;;;;;2.07;1.70;;;;;;;19.70;29.27;100161.78;531937;1098;116754;-62
2021/06/02 17:29:55;;;;;;;4.70;2.07;;;;;;;19.28;30.09;100165.64;528588;1098;117357;-62
2021/06/02 17:40:01;;;;;;;2.13;1.93;;;;;;;19.00;30.77;100170.84;518815;1098;116284;-63
2021/06/02 17:50:08;;;;;;;2.87;1.57;;;;;;;18.82;31.55;100191.08;532027;1098;116388;-62
2021/06/02 18:00:15;;;;;;;6.10;2.10;;;;;;;18.63;32.11;100182.06;531280;1098;116020;-62
2021/06/02 18:10:20;;;;;;;1.97;1.60;;;;;;;18.45;32.60;100181.88;532132;1098;117014;-62
2021/06/02 18:20:28;;;;;;;2.00;1.80;;;;;;;18.20;32.77;100186.69;526877;1092;116151;-61
2021/06/02 18:30:34;;;;;;;2.45;2.05;;;;;;;17.89;33.65;100205.23;519896;1098;116159;-63
2021/06/02 18:40:39;;;;;;;3.97;2.00;;;;;;;17.62;34.43;100211.92;531588;1098;116100;-61
2021/06/02 18:50:45;;;;;;;6.27;3.23;;;;;;;17.40;34.97;100223.52;531333;1098;116266;-62
2021/06/02 19:00:51;;;;;;;4.23;3.33;;;;;;;17.15;35.50;100239.63;532046;1098;116020;-62
2021/06/02 19:11:01;;;;;;;6.37;2.50;;;;;;;16.89;36.03;100258.48;532045;1098;116037;-62
2021/06/02 19:21:06;;;;;;;11.80;3.77;;;;;;;16.68;36.73;100271.65;529796;1098;116290;-62
2021/06/02 19:31:12;;;;;;;4.03;2.40;;;;;;;16.47;37.02;100271.51;532112;1097;116429;-63
2021/06/02 19:41:17;;;;;;;3.73;2.60;;;;;;;16.17;37.65;100273.77;532159;1098;116469;-63
2021/06/02 19:51:24;;;;;;;7.37;3.10;;;;;;;15.85;38.14;100287.63;524435;1093;117863;-63
2021/06/02 20:01:37;;;;;;;17.60;11.43;;;;;;;15.52;38.61;100292.68;516494;1098;116572;-63
2021/06/02 20:11:42;;;;;;;4.23;3.20;;;;;;;15.22;39.04;100290.48;519178;1098;118341;-63
2021/06/02 20:21:48;;;;;;;4.83;3.67;;;;;;;14.95;38.93;100297.64;527351;1098;116120;-62
2021/06/02 20:42:17;;;;;;;5.93;3.83;;;;;;;14.46;40.77;100320.39;531328;1098;116563;-62
2021/06/02 20:52:22;;;;;;;5.27;4.33;;;;;;;14.22;41.65;100323.77;532037;1098;117307;-62
2021/06/02 21:02:28;;;;;;;6.90;3.50;;;;;;;13.97;42.24;100324.59;532084;1098;116828;-62
2021/06/02 21:12:33;;;;;;;4.35;3.33;;;;;;;13.63;42.89;100330.28;527543;1098;116784;-62
2021/06/02 21:22:38;;;;;;;8.40;5.13;;;;;;;13.39;43.75;100336.17;532106;1098;117248;-63
2021/06/02 21:32:44;;;;;;;10.20;4.10;;;;;;;13.21;44.18;100339.97;528211;1098;117342;-61
2021/06/02 21:42:49;;;;;;;6.57;4.50;;;;;;;12.99;44.96;100346.62;532039;1098;116020;-61
2021/06/02 21:53:12;;;;;;;5.57;3.67;;;;;;;12.78;45.48;100349.63;532044;1098;116662;-62
2021/06/02 22:03:19;;;;;;;6.40;5.10;;;;;;;12.60;45.99;100347.16;528619;1097;116429;-62
2021/06/02 22:13:24;;;;;;;11.13;4.43;;;;;;;12.28;47.27;100357.83;526864;1093;116708;-62
2021/06/02 22:23:32;;;;;;;8.27;4.90;;;;;;;11.83;49.52;100346.38;532026;1098;116986;-63
2021/06/02 22:33:37;;;;;;;9.35;4.73;;;;;;;11.36;50.79;100348.96;531911;1098;117533;-63
2021/06/02 22:43:43;;;;;;;9.27;4.40;;;;;;;10.99;52.00;100346.58;530686;1098;116871;-63
2021/06/02 22:53:48;;;;;;;12.03;5.23;;;;;;;10.76;52.29;100350.42;514870;1098;116650;-63
2021/06/02 23:03:53;;;;;;;7.50;4.70;;;;;;;10.36;53.57;100350.68;515374;1098;116328;-64
2021/06/02 23:13:59;;;;;;;6.83;4.93;;;;;;;10.03;54.32;100352.31;515126;1098;117088;-64
2021/06/02 23:24:04;;;;;;;7.38;4.18;;;;;;;9.72;56.00;100359.05;514380;1098;117131;-64
2021/06/02 23:34:09;;;;;;;9.68;5.80;;;;;;;9.40;56.69;100369.29;515011;1098;116804;-64
2021/06/02 23:44:14;;;;;;;7.83;5.13;;;;;;;9.19;57.35;100369.39;515005;1098;116234;-63
2021/06/02 23:54:19;;;;;;;6.03;5.43;;;;;;;8.96;58.24;100387.00;514342;1093;116565;-65
